Lisbon, NH (03585)

9:53 AM EDT on September 02, 2015 (GMT -0400)
Sugar Hill | | Change Station
CLOSE
Current Station
Personal Weather Station
Location: Sugar Hill, NH
Elevation: 900 ft
Nearby Weather Stations

Elev 900 ft 44.22 °N, 71.80 °W | Updated 7 minutes ago

Partly Cloudy
Partly Cloudy
67.6 °F
Feels Like 67.6 °F
N
0.0
Wind Variable Wind from West

Today
High -- | Low -- °F
--% Chance of Precip.
Yesterday
High -- | Low -- °F
Precip. -- in
6:11 AM 7:22 PM
Waning Gibbous, 80% visible
Pressure 30.04 in
Visibility 9.0 miles
Clouds Clear
Dew Point 61 °F
Humidity 79%
Rainfall 0.00 in
Snow Depth Not available.
UV 3 out of 12
Pollen 8.30 out of 12
Air Quality Not available.
Flu Activity Not available.
METAR KHIE 021252Z AUTO 00000KT 9SM CLR 17/14 A3003 RMK AO2 SLP171 T01720139 TSNO
Pressure 30.04 in
Visibility 9.0 miles
Clouds Clear
Dew Point 61 °F
Humidity 79%
Rainfall 0.00 in
Snow Depth Not available.
UV 3 out of 12
Pollen 8.30 out of 12
Air Quality Not available.
Flu Activity Not available.
METAR KHIE 021252Z AUTO 00000KT 9SM CLR 17/14 A3003 RMK AO2 SLP171 T01720139 TSNO

10-Day Weather Forecast

×

Almanac

Astronomy

Sep. 02, 2015 Rise Set
Actual Time
Civil Twilight
Nautical Twilight
Astronomical Twilight
Moon
Length of Visible Light
Length of Day
Tomorrow will be .
, % of the Moon is Illuminated

Today's Extremes

State Highs State Lows

Community

WunderPhotos

Upload Photos

1,851,754 photos uploaded!

WunderBlogs® & News

Nearby

Air Quality

  Air Quality AQ Index Pollutant
Not available.

Snow Depth

Station Depth Elevation

Earthquake Activity

City Distance Mag. Time & Date
Minimum magnitude displayed is 2.5.

Coastal Water Temperatures

Place Temperature

Stations

Nearby Weather Stations

Station Location Temp. Windchill Dew Point Humidity Wind Precip. Elev Updated Type